CFE8746 LFBE-EGLC
Flight info
| Callsign | CFE8746 |
|---|---|
| Flight time | N/A |
| Altitude | 34000 |
| Route | VELIN DCT UVELI DCT CNA DCT TUPAR UM184 USODA/N0368F240 UM184 DIKRO UZ273 ANGLO/N0374F250 UZ273 NEVIL |
| Aircraft | E190/M-SDE3GILORVW/S |
Departure
| Time | 2026-04-30 14:34 |
|---|---|
| Airport | Bergerac Dordogne-Périgord airport (LFBE) |
Arrival
| Time | N/A |
|---|---|
| Airport | London City Airport (EGLC) |
| Time | Latitude | Longitude | Altitude | Speed | Heading |
|---|---|---|---|---|---|
| 2026-04-30 14:23 | 44.82267 | 0.51590 | 175 ft | 0 kts | 313° |
| 2026-04-30 14:31 | 44.82272 | 0.51582 | 175 ft | 3 kts | 313° |
| 2026-04-30 14:31 | 44.82315 | 0.51411 | 175 ft | 15 kts | 275° |
| 2026-04-30 14:31 | 44.82324 | 0.51253 | 175 ft | 17 kts | 274° |
| 2026-04-30 14:32 | 44.82342 | 0.50907 | 175 ft | 19 kts | 274° |
| 2026-04-30 14:32 | 44.82352 | 0.50727 | 175 ft | 16 kts | 275° |
| 2026-04-30 14:32 | 44.82427 | 0.50662 | 176 ft | 15 kts | 5° |
| 2026-04-30 14:33 | 44.82526 | 0.50624 | 176 ft | 16 kts | 309° |
| 2026-04-30 14:33 | 44.82522 | 0.50597 | 176 ft | 17 kts | 94° |
| 2026-04-30 14:33 | 44.82493 | 0.51124 | 176 ft | 91 kts | 94° |
| 2026-04-30 14:34 | 44.82426 | 0.52333 | 180 ft | 155 kts | 94° |
| 2026-04-30 14:34 | 44.82356 | 0.54011 | 673 ft | 182 kts | 94° |
| 2026-04-30 14:34 | 44.82307 | 0.55877 | 1402 ft | 204 kts | 93° |
| 2026-04-30 14:34 | 44.82217 | 0.57978 | 1962 ft | 222 kts | 97° |
| 2026-04-30 14:35 | 44.82047 | 0.62611 | 3651 ft | 248 kts | 81° |
| 2026-04-30 14:35 | 44.82817 | 0.64886 | 4276 ft | 270 kts | 47° |
| 2026-04-30 14:35 | 44.84411 | 0.66289 | 5261 ft | 274 kts | 18° |
| 2026-04-30 14:36 | 44.86312 | 0.66560 | 6220 ft | 278 kts | 351° |
| 2026-04-30 14:36 | 44.88122 | 0.65594 | 7072 ft | 282 kts | 327° |
| 2026-04-30 14:36 | 44.89698 | 0.63962 | 7963 ft | 283 kts | 319° |
| 2026-04-30 14:36 | 44.91209 | 0.62159 | 8789 ft | 287 kts | 317° |
| 2026-04-30 14:37 | 44.92707 | 0.60269 | 9588 ft | 291 kts | 315° |
| 2026-04-30 14:37 | 44.94038 | 0.58105 | 10336 ft | 299 kts | 298° |
| 2026-04-30 14:37 | 44.94658 | 0.55248 | 10795 ft | 314 kts | 276° |
| 2026-04-30 14:37 | 44.94893 | 0.52103 | 11399 ft | 330 kts | 273° |
| 2026-04-30 14:38 | 44.95128 | 0.48836 | 12210 ft | 338 kts | 274° |
| 2026-04-30 14:38 | 44.95410 | 0.45512 | 13147 ft | 343 kts | 274° |
| 2026-04-30 14:38 | 44.95713 | 0.42144 | 14079 ft | 349 kts | 274° |
| 2026-04-30 14:38 | 44.96015 | 0.38726 | 14961 ft | 353 kts | 274° |
| 2026-04-30 14:39 | 44.96318 | 0.35259 | 15842 ft | 358 kts | 274° |
| 2026-04-30 14:39 | 44.96619 | 0.31747 | 16625 ft | 363 kts | 274° |
| 2026-04-30 14:39 | 44.96918 | 0.28186 | 17390 ft | 368 kts | 274° |
| 2026-04-30 14:40 | 44.97511 | 0.20913 | 18874 ft | 377 kts | 274° |
| 2026-04-30 14:40 | 44.98026 | 0.17252 | 19551 ft | 386 kts | 288° |
| 2026-04-30 14:40 | 44.99459 | 0.14018 | 20242 ft | 396 kts | 313° |
| 2026-04-30 14:40 | 45.01711 | 0.11738 | 20761 ft | 404 kts | 336° |
| 2026-04-30 14:41 | 45.04422 | 0.10627 | 21383 ft | 407 kts | 347° |
| 2026-04-30 14:41 | 45.07126 | 0.09316 | 21895 ft | 414 kts | 337° |
| 2026-04-30 14:41 | 45.09758 | 0.07556 | 22301 ft | 422 kts | 334° |
| 2026-04-30 14:41 | 45.12408 | 0.05692 | 22810 ft | 427 kts | 334° |
| 2026-04-30 14:42 | 45.15054 | 0.03857 | 23371 ft | 431 kts | 334° |
| 2026-04-30 14:42 | 45.17761 | 0.01996 | 23902 ft | 434 kts | 334° |
| 2026-04-30 14:42 | 45.20487 | 0.00125 | 24396 ft | 437 kts | 335° |
| 2026-04-30 14:42 | 45.23230 | -0.01748 | 24983 ft | 438 kts | 336° |
| 2026-04-30 14:43 | 45.25984 | -0.03637 | 25498 ft | 441 kts | 335° |
| 2026-04-30 14:43 | 45.28757 | -0.05542 | 25991 ft | 444 kts | 335° |
| 2026-04-30 14:43 | 45.31547 | -0.07460 | 26453 ft | 447 kts | 335° |
| 2026-04-30 14:43 | 45.34353 | -0.09392 | 26921 ft | 450 kts | 335° |
| 2026-04-30 14:44 | 45.37175 | -0.11337 | 27361 ft | 452 kts | 335° |
| 2026-04-30 14:44 | 45.40015 | -0.13296 | 27742 ft | 456 kts | 335° |
| 2026-04-30 14:44 | 45.42878 | -0.15275 | 28139 ft | 458 kts | 335° |
| 2026-04-30 14:44 | 45.45753 | -0.17266 | 28528 ft | 461 kts | 335° |
| 2026-04-30 14:45 | 45.48645 | -0.19271 | 28911 ft | 464 kts | 335° |
| 2026-04-30 14:45 | 45.51549 | -0.21288 | 29352 ft | 464 kts | 335° |
| 2026-04-30 14:45 | 45.54449 | -0.23303 | 29899 ft | 463 kts | 335° |
| 2026-04-30 14:45 | 45.57336 | -0.25310 | 30408 ft | 461 kts | 335° |
| 2026-04-30 14:46 | 45.60197 | -0.27304 | 31016 ft | 454 kts | 335° |
| 2026-04-30 14:46 | 45.63023 | -0.29277 | 31512 ft | 451 kts | 335° |
| 2026-04-30 14:46 | 45.65850 | -0.31207 | 31909 ft | 449 kts | 339° |
| 2026-04-30 14:46 | 45.67792 | -0.32226 | 32162 ft | 448 kts | 343° |
| 2026-04-30 14:47 | 45.71770 | -0.33977 | 32677 ft | 446 kts | 343° |
| 2026-04-30 14:47 | 45.74730 | -0.35282 | 33060 ft | 445 kts | 343° |
| 2026-04-30 14:47 | 45.77685 | -0.36593 | 33436 ft | 444 kts | 343° |
| 2026-04-30 14:47 | 45.80629 | -0.37904 | 33781 ft | 443 kts | 343° |
| 2026-04-30 14:48 | 45.83565 | -0.39214 | 34171 ft | 440 kts | 343° |
| 2026-04-30 14:48 | 45.86484 | -0.40518 | 34170 ft | 438 kts | 343° |
| 2026-04-30 14:48 | 45.92288 | -0.43119 | 34136 ft | 436 kts | 343° |
| 2026-04-30 14:49 | 45.98082 | -0.45721 | 34117 ft | 438 kts | 342° |
| 2026-04-30 14:49 | 46.03946 | -0.48362 | 34117 ft | 443 kts | 342° |
| 2026-04-30 14:50 | 46.12758 | -0.52343 | 34126 ft | 442 kts | 342° |
| 2026-04-30 14:51 | 46.21598 | -0.56347 | 34097 ft | 446 kts | 342° |
| 2026-04-30 14:52 | 46.30486 | -0.60390 | 34100 ft | 447 kts | 342° |
| 2026-04-30 14:52 | 46.39372 | -0.64448 | 34104 ft | 447 kts | 342° |
| 2026-04-30 14:53 | 46.44866 | -0.68448 | 34156 ft | 445 kts | 319° |
| 2026-04-30 14:53 | 46.47184 | -0.71426 | 34111 ft | 446 kts | 316° |
| 2026-04-30 14:54 | 46.56328 | -0.83528 | 34080 ft | 439 kts | 317° |
| 2026-04-30 14:55 | 46.63165 | -0.92399 | 34089 ft | 440 kts | 318° |
| 2026-04-30 14:56 | 46.72337 | -1.04211 | 34098 ft | 440 kts | 317° |
| 2026-04-30 14:57 | 46.79196 | -1.13099 | 34105 ft | 440 kts | 317° |
| 2026-04-30 14:58 | 46.87560 | -1.23983 | 34089 ft | 442 kts | 319° |
| 2026-04-30 14:58 | 46.94491 | -1.33011 | 34097 ft | 446 kts | 321° |
| 2026-04-30 14:59 | 47.00016 | -1.36790 | 34116 ft | 443 kts | 354° |
| 2026-04-30 15:00 | 47.09243 | -1.37355 | 34063 ft | 441 kts | 360° |
| 2026-04-30 15:01 | 47.21554 | -1.38037 | 34065 ft | 445 kts | 358° |
| 2026-04-30 15:01 | 47.30829 | -1.38589 | 34078 ft | 445 kts | 358° |
| 2026-04-30 15:02 | 47.37015 | -1.38957 | 34058 ft | 444 kts | 358° |
| 2026-04-30 15:03 | 47.52421 | -1.39875 | 34067 ft | 443 kts | 358° |
| 2026-04-30 15:04 | 47.67818 | -1.40803 | 34064 ft | 443 kts | 358° |
| 2026-04-30 15:06 | 47.83211 | -1.41986 | 34050 ft | 444 kts | 357° |
| 2026-04-30 15:07 | 47.95538 | -1.42998 | 34056 ft | 443 kts | 357° |
| 2026-04-30 15:08 | 48.07833 | -1.43964 | 34052 ft | 444 kts | 358° |
| 2026-04-30 15:09 | 48.23261 | -1.45061 | 34055 ft | 445 kts | 358° |
| 2026-04-30 15:10 | 48.35641 | -1.45952 | 34058 ft | 445 kts | 358° |
| 2026-04-30 15:11 | 48.54208 | -1.47304 | 34063 ft | 445 kts | 358° |
| 2026-04-30 15:13 | 48.69684 | -1.48433 | 34060 ft | 445 kts | 358° |
| 2026-04-30 15:14 | 48.91291 | -1.49180 | 34074 ft | 441 kts | 18° |
| 2026-04-30 15:17 | 49.17105 | -1.34599 | 34065 ft | 439 kts | 22° |
| 2026-04-30 15:19 | 49.39729 | -1.21663 | 34078 ft | 436 kts | 22° |